sensor_id;sensor_type;location;lat;lon;timestamp;P1;durP1;ratioP1;P2;durP2;ratioP2
59492;SDS011;45497;43.996;22.876;2023-03-23T00:02:19;25.48;;;17.08;;
59492;SDS011;45497;43.996;22.876;2023-03-23T00:04:48;29.60;;;22.20;;
59492;SDS011;45497;43.996;22.876;2023-03-23T00:07:14;32.87;;;22.33;;
59492;SDS011;45497;43.996;22.876;2023-03-23T00:09:46;30.60;;;19.50;;
59492;SDS011;45497;43.996;22.876;2023-03-23T00:12:12;37.10;;;23.20;;
59492;SDS011;45497;43.996;22.876;2023-03-23T00:14:40;30.33;;;21.83;;
59492;SDS011;45497;43.996;22.876;2023-03-23T00:17:09;29.42;;;21.60;;
59492;SDS011;45497;43.996;22.876;2023-03-23T00:19:38;30.15;;;22.02;;
59492;SDS011;45497;43.996;22.876;2023-03-23T00:22:11;25.38;;;20.55;;
59492;SDS011;45497;43.996;22.876;2023-03-23T00:24:37;22.95;;;18.88;;
59492;SDS011;45497;43.996;22.876;2023-03-23T00:27:03;26.13;;;19.37;;
59492;SDS011;45497;43.996;22.876;2023-03-23T00:29:28;24.77;;;19.15;;
59492;SDS011;45497;43.996;22.876;2023-03-23T00:31:54;25.53;;;19.40;;
59492;SDS011;45497;43.996;22.876;2023-03-23T00:34:22;23.60;;;18.45;;
59492;SDS011;45497;43.996;22.876;2023-03-23T00:36:52;22.88;;;19.02;;
59492;SDS011;45497;43.996;22.876;2023-03-23T00:39:22;25.20;;;19.45;;
59492;SDS011;45497;43.996;22.876;2023-03-23T00:41:49;23.77;;;18.83;;
59492;SDS011;45497;43.996;22.876;2023-03-23T00:44:15;24.40;;;18.48;;
59492;SDS011;45497;43.996;22.876;2023-03-23T00:46:47;25.00;;;18.45;;
59492;SDS011;45497;43.996;22.876;2023-03-23T00:49:20;23.27;;;18.00;;
59492;SDS011;45497;43.996;22.876;2023-03-23T00:51:56;23.95;;;18.33;;
59492;SDS011;45497;43.996;22.876;2023-03-23T00:54:23;23.92;;;17.98;;
59492;SDS011;45497;43.996;22.876;2023-03-23T00:56:49;20.92;;;16.20;;
59492;SDS011;45497;43.996;22.876;2023-03-23T00:59:15;20.98;;;16.00;;
59492;SDS011;45497;43.996;22.876;2023-03-23T01:01:41;23.27;;;16.47;;
59492;SDS011;45497;43.996;22.876;2023-03-23T01:04:06;22.60;;;15.87;;
59492;SDS011;45497;43.996;22.876;2023-03-23T01:06:35;22.13;;;16.27;;
59492;SDS011;45497;43.996;22.876;2023-03-23T01:09:08;24.73;;;16.33;;
59492;SDS011;45497;43.996;22.876;2023-03-23T01:11:39;20.20;;;15.45;;
59492;SDS011;45497;43.996;22.876;2023-03-23T01:14:08;19.73;;;14.85;;
59492;SDS011;45497;43.996;22.876;2023-03-23T01:16:34;19.57;;;15.27;;
59492;SDS011;45497;43.996;22.876;2023-03-23T01:19:00;21.30;;;14.90;;
59492;SDS011;45497;43.996;22.876;2023-03-23T01:21:25;20.13;;;14.68;;
59492;SDS011;45497;43.996;22.876;2023-03-23T01:23:51;14.50;;;12.13;;
59492;SDS011;45497;43.996;22.876;2023-03-23T01:26:18;17.58;;;14.38;;
59492;SDS011;45497;43.996;22.876;2023-03-23T01:28:45;17.25;;;14.35;;
59492;SDS011;45497;43.996;22.876;2023-03-23T01:31:12;14.05;;;12.55;;
59492;SDS011;45497;43.996;22.876;2023-03-23T01:33:40;16.17;;;12.50;;
59492;SDS011;45497;43.996;22.876;2023-03-23T01:36:07;14.20;;;11.48;;
59492;SDS011;45497;43.996;22.876;2023-03-23T01:38:36;13.60;;;11.30;;
59492;SDS011;45497;43.996;22.876;2023-03-23T01:41:02;12.47;;;10.70;;
59492;SDS011;45497;43.996;22.876;2023-03-23T01:43:28;11.57;;;10.35;;
59492;SDS011;45497;43.996;22.876;2023-03-23T01:45:53;13.45;;;10.75;;
59492;SDS011;45497;43.996;22.876;2023-03-23T01:48:32;12.27;;;10.57;;
59492;SDS011;45497;43.996;22.876;2023-03-23T01:53:38;13.77;;;11.23;;
59492;SDS011;45497;43.996;22.876;2023-03-23T01:56:09;12.40;;;10.80;;
59492;SDS011;45497;43.996;22.876;2023-03-23T01:58:38;12.27;;;9.98;;
59492;SDS011;45497;43.996;22.876;2023-03-23T02:01:06;11.93;;;9.80;;
59492;SDS011;45497;43.996;22.876;2023-03-23T02:03:36;12.80;;;10.88;;
59492;SDS011;45497;43.996;22.876;2023-03-23T02:06:04;12.37;;;10.30;;
59492;SDS011;45497;43.996;22.876;2023-03-23T02:08:31;11.82;;;10.23;;
59492;SDS011;45497;43.996;22.876;2023-03-23T02:10:58;14.57;;;11.32;;
59492;SDS011;45497;43.996;22.876;2023-03-23T02:13:23;27.55;;;19.27;;
59492;SDS011;45497;43.996;22.876;2023-03-23T02:36:56;91.53;;;24.35;;
59492;SDS011;45497;43.996;22.876;2023-03-23T02:39:47;59.75;;;24.45;;
59492;SDS011;45497;43.996;22.876;2023-03-23T02:42:20;49.58;;;25.10;;
59492;SDS011;45497;43.996;22.876;2023-03-23T02:44:51;45.08;;;26.10;;
59492;SDS011;45497;43.996;22.876;2023-03-23T02:47:21;43.28;;;24.55;;
59492;SDS011;45497;43.996;22.876;2023-03-23T02:49:50;50.50;;;24.35;;
59492;SDS011;45497;43.996;22.876;2023-03-23T02:52:21;47.33;;;25.00;;
59492;SDS011;45497;43.996;22.876;2023-03-23T02:54:49;56.00;;;25.02;;
59492;SDS011;45497;43.996;22.876;2023-03-23T02:57:17;60.00;;;24.80;;
59492;SDS011;45497;43.996;22.876;2023-03-23T02:59:47;39.95;;;20.95;;
59492;SDS011;45497;43.996;22.876;2023-03-23T03:04:43;33.35;;;18.05;;
59492;SDS011;45497;43.996;22.876;2023-03-23T03:07:23;32.38;;;18.85;;
59492;SDS011;45497;43.996;22.876;2023-03-23T03:10:16;33.95;;;19.02;;
59492;SDS011;45497;43.996;22.876;2023-03-23T03:13:11;35.17;;;19.65;;
59492;SDS011;45497;43.996;22.876;2023-03-23T03:21:23;37.73;;;21.13;;
59492;SDS011;45497;43.996;22.876;2023-03-23T03:23:52;55.33;;;21.83;;
59492;SDS011;45497;43.996;22.876;2023-03-23T03:26:21;35.47;;;20.25;;
59492;SDS011;45497;43.996;22.876;2023-03-23T03:28:51;44.03;;;23.50;;
59492;SDS011;45497;43.996;22.876;2023-03-23T03:31:19;43.55;;;20.38;;
59492;SDS011;45497;43.996;22.876;2023-03-23T03:33:48;42.55;;;22.10;;
59492;SDS011;45497;43.996;22.876;2023-03-23T03:36:17;44.05;;;19.67;;
59492;SDS011;45497;43.996;22.876;2023-03-23T03:38:47;50.47;;;27.80;;
59492;SDS011;45497;43.996;22.876;2023-03-23T03:41:14;54.85;;;19.70;;
59492;SDS011;45497;43.996;22.876;2023-03-23T03:43:40;49.00;;;19.00;;
59492;SDS011;45497;43.996;22.876;2023-03-23T03:46:06;47.95;;;20.20;;
59492;SDS011;45497;43.996;22.876;2023-03-23T03:48:32;49.60;;;19.80;;
59492;SDS011;45497;43.996;22.876;2023-03-23T03:50:58;52.45;;;21.70;;
59492;SDS011;45497;43.996;22.876;2023-03-23T03:53:25;47.13;;;20.58;;
59492;SDS011;45497;43.996;22.876;2023-03-23T03:55:51;46.30;;;20.60;;
59492;SDS011;45497;43.996;22.876;2023-03-23T03:58:20;43.50;;;22.07;;
59492;SDS011;45497;43.996;22.876;2023-03-23T04:00:47;49.17;;;20.45;;
59492;SDS011;45497;43.996;22.876;2023-03-23T04:03:15;63.25;;;20.02;;
59492;SDS011;45497;43.996;22.876;2023-03-23T04:05:41;55.88;;;19.63;;
59492;SDS011;45497;43.996;22.876;2023-03-23T04:08:09;43.28;;;19.40;;
59492;SDS011;45497;43.996;22.876;2023-03-23T04:10:37;56.03;;;19.98;;
59492;SDS011;45497;43.996;22.876;2023-03-23T04:13:02;73.38;;;23.67;;
59492;SDS011;45497;43.996;22.876;2023-03-23T04:15:29;68.20;;;21.53;;
59492;SDS011;45497;43.996;22.876;2023-03-23T04:17:55;65.03;;;20.40;;
59492;SDS011;45497;43.996;22.876;2023-03-23T04:20:22;59.83;;;21.55;;
59492;SDS011;45497;43.996;22.876;2023-03-23T04:22:48;67.38;;;20.98;;
59492;SDS011;45497;43.996;22.876;2023-03-23T04:25:15;52.47;;;20.85;;
59492;SDS011;45497;43.996;22.876;2023-03-23T04:27:45;62.90;;;20.38;;
59492;SDS011;45497;43.996;22.876;2023-03-23T04:30:17;57.47;;;20.45;;
59492;SDS011;45497;43.996;22.876;2023-03-23T04:32:44;73.57;;;20.63;;
59492;SDS011;45497;43.996;22.876;2023-03-23T04:35:11;50.83;;;20.47;;
59492;SDS011;45497;43.996;22.876;2023-03-23T04:37:39;45.38;;;20.58;;
59492;SDS011;45497;43.996;22.876;2023-03-23T04:40:06;51.55;;;20.80;;
59492;SDS011;45497;43.996;22.876;2023-03-23T04:42:37;53.47;;;19.77;;
59492;SDS011;45497;43.996;22.876;2023-03-23T04:45:03;48.17;;;19.85;;
59492;SDS011;45497;43.996;22.876;2023-03-23T04:47:32;46.50;;;19.97;;
59492;SDS011;45497;43.996;22.876;2023-03-23T04:50:04;46.58;;;20.25;;
59492;SDS011;45497;43.996;22.876;2023-03-23T04:52:31;57.95;;;20.00;;
59492;SDS011;45497;43.996;22.876;2023-03-23T04:54:57;54.40;;;20.93;;
59492;SDS011;45497;43.996;22.876;2023-03-23T04:57:23;49.55;;;21.67;;
59492;SDS011;45497;43.996;22.876;2023-03-23T04:59:53;47.25;;;21.02;;
59492;SDS011;45497;43.996;22.876;2023-03-23T05:02:18;39.03;;;20.40;;
59492;SDS011;45497;43.996;22.876;2023-03-23T05:04:44;36.53;;;20.55;;
59492;SDS011;45497;43.996;22.876;2023-03-23T05:07:10;41.43;;;20.10;;
59492;SDS011;45497;43.996;22.876;2023-03-23T05:09:36;41.78;;;20.30;;
59492;SDS011;45497;43.996;22.876;2023-03-23T05:12:08;43.63;;;20.58;;
59492;SDS011;45497;43.996;22.876;2023-03-23T05:14:35;52.60;;;20.58;;
59492;SDS011;45497;43.996;22.876;2023-03-23T05:17:01;41.90;;;20.27;;
59492;SDS011;45497;43.996;22.876;2023-03-23T05:19:29;44.90;;;19.17;;
59492;SDS011;45497;43.996;22.876;2023-03-23T05:21:57;68.27;;;19.43;;
59492;SDS011;45497;43.996;22.876;2023-03-23T05:24:28;71.35;;;19.33;;
59492;SDS011;45497;43.996;22.876;2023-03-23T05:26:56;51.25;;;19.88;;
59492;SDS011;45497;43.996;22.876;2023-03-23T05:29:22;48.30;;;19.88;;
59492;SDS011;45497;43.996;22.876;2023-03-23T05:31:48;35.45;;;19.88;;
59492;SDS011;45497;43.996;22.876;2023-03-23T05:34:14;44.97;;;19.27;;
59492;SDS011;45497;43.996;22.876;2023-03-23T05:36:41;39.83;;;19.73;;
59492;SDS011;45497;43.996;22.876;2023-03-23T05:39:08;40.25;;;19.92;;
59492;SDS011;45497;43.996;22.876;2023-03-23T05:41:35;37.72;;;20.85;;
59492;SDS011;45497;43.996;22.876;2023-03-23T05:44:01;28.75;;;20.23;;
59492;SDS011;45497;43.996;22.876;2023-03-23T05:46:27;35.47;;;19.45;;
59492;SDS011;45497;43.996;22.876;2023-03-23T05:48:53;38.75;;;21.08;;
59492;SDS011;45497;43.996;22.876;2023-03-23T05:51:19;58.70;;;21.35;;
59492;SDS011;45497;43.996;22.876;2023-03-23T05:53:45;67.38;;;20.65;;
59492;SDS011;45497;43.996;22.876;2023-03-23T05:56:11;52.13;;;19.42;;
59492;SDS011;45497;43.996;22.876;2023-03-23T05:58:37;46.87;;;20.67;;
59492;SDS011;45497;43.996;22.876;2023-03-23T06:01:06;42.17;;;21.10;;
59492;SDS011;45497;43.996;22.876;2023-03-23T06:03:32;41.80;;;20.27;;
59492;SDS011;45497;43.996;22.876;2023-03-23T06:05:57;34.60;;;20.40;;
59492;SDS011;45497;43.996;22.876;2023-03-23T06:08:23;40.88;;;22.73;;
59492;SDS011;45497;43.996;22.876;2023-03-23T06:10:49;39.08;;;19.63;;
59492;SDS011;45497;43.996;22.876;2023-03-23T06:13:16;40.78;;;18.88;;
59492;SDS011;45497;43.996;22.876;2023-03-23T06:15:41;38.47;;;18.10;;
59492;SDS011;45497;43.996;22.876;2023-03-23T06:18:07;59.30;;;17.20;;
59492;SDS011;45497;43.996;22.876;2023-03-23T06:20:33;32.60;;;17.67;;
59492;SDS011;45497;43.996;22.876;2023-03-23T06:23:00;76.85;;;19.88;;
59492;SDS011;45497;43.996;22.876;2023-03-23T06:25:26;35.63;;;19.55;;
59492;SDS011;45497;43.996;22.876;2023-03-23T06:27:52;37.08;;;17.85;;
59492;SDS011;45497;43.996;22.876;2023-03-23T06:30:18;42.83;;;17.00;;
59492;SDS011;45497;43.996;22.876;2023-03-23T06:32:43;45.50;;;17.17;;
59492;SDS011;45497;43.996;22.876;2023-03-23T06:35:12;37.38;;;14.60;;
59492;SDS011;45497;43.996;22.876;2023-03-23T06:37:39;52.08;;;15.27;;
59492;SDS011;45497;43.996;22.876;2023-03-23T06:40:05;28.05;;;16.25;;
59492;SDS011;45497;43.996;22.876;2023-03-23T06:42:31;34.90;;;16.47;;
59492;SDS011;45497;43.996;22.876;2023-03-23T06:44:57;37.25;;;16.17;;
59492;SDS011;45497;43.996;22.876;2023-03-23T06:47:25;34.10;;;16.95;;
59492;SDS011;45497;43.996;22.876;2023-03-23T06:49:57;29.95;;;17.45;;
59492;SDS011;45497;43.996;22.876;2023-03-23T06:52:24;40.40;;;17.60;;
59492;SDS011;45497;43.996;22.876;2023-03-23T06:54:50;40.40;;;18.65;;
59492;SDS011;45497;43.996;22.876;2023-03-23T06:57:17;39.00;;;18.17;;
59492;SDS011;45497;43.996;22.876;2023-03-23T06:59:43;31.95;;;16.60;;
59492;SDS011;45497;43.996;22.876;2023-03-23T07:02:13;30.27;;;16.95;;
59492;SDS011;45497;43.996;22.876;2023-03-23T07:04:39;45.05;;;17.27;;
59492;SDS011;45497;43.996;22.876;2023-03-23T07:07:07;28.45;;;16.95;;
59492;SDS011;45497;43.996;22.876;2023-03-23T07:09:33;26.63;;;18.38;;
59492;SDS011;45497;43.996;22.876;2023-03-23T07:11:59;28.75;;;17.80;;
59492;SDS011;45497;43.996;22.876;2023-03-23T07:14:24;28.20;;;16.90;;
59492;SDS011;45497;43.996;22.876;2023-03-23T07:16:50;33.17;;;18.20;;
59492;SDS011;45497;43.996;22.876;2023-03-23T07:19:16;34.88;;;17.92;;
59492;SDS011;45497;43.996;22.876;2023-03-23T07:21:41;46.20;;;17.47;;
59492;SDS011;45497;43.996;22.876;2023-03-23T07:24:11;24.30;;;18.60;;
59492;SDS011;45497;43.996;22.876;2023-03-23T07:26:39;31.40;;;19.00;;
59492;SDS011;45497;43.996;22.876;2023-03-23T07:29:08;27.05;;;20.60;;
59492;SDS011;45497;43.996;22.876;2023-03-23T07:31:34;28.30;;;18.45;;
59492;SDS011;45497;43.996;22.876;2023-03-23T07:34:01;24.90;;;17.48;;
59492;SDS011;45497;43.996;22.876;2023-03-23T07:36:27;25.38;;;18.30;;
59492;SDS011;45497;43.996;22.876;2023-03-23T07:38:53;23.20;;;17.27;;
59492;SDS011;45497;43.996;22.876;2023-03-23T07:41:20;27.48;;;19.17;;
59492;SDS011;45497;43.996;22.876;2023-03-23T07:43:45;26.13;;;19.92;;
59492;SDS011;45497;43.996;22.876;2023-03-23T07:46:12;28.83;;;20.30;;
59492;SDS011;45497;43.996;22.876;2023-03-23T07:48:38;23.92;;;19.05;;
59492;SDS011;45497;43.996;22.876;2023-03-23T07:51:05;24.27;;;19.10;;
59492;SDS011;45497;43.996;22.876;2023-03-23T07:53:32;22.95;;;17.48;;
59492;SDS011;45497;43.996;22.876;2023-03-23T07:55:58;23.13;;;19.10;;
59492;SDS011;45497;43.996;22.876;2023-03-23T07:58:24;27.05;;;19.60;;
59492;SDS011;45497;43.996;22.876;2023-03-23T08:00:51;27.85;;;20.50;;
59492;SDS011;45497;43.996;22.876;2023-03-23T08:03:17;27.17;;;20.17;;
59492;SDS011;45497;43.996;22.876;2023-03-23T08:05:43;27.43;;;20.57;;
59492;SDS011;45497;43.996;22.876;2023-03-23T08:08:10;25.90;;;20.80;;
59492;SDS011;45497;43.996;22.876;2023-03-23T08:10:36;28.60;;;21.35;;
59492;SDS011;45497;43.996;22.876;2023-03-23T08:13:02;26.45;;;20.63;;
59492;SDS011;45497;43.996;22.876;2023-03-23T08:15:27;31.83;;;21.65;;
59492;SDS011;45497;43.996;22.876;2023-03-23T08:17:53;28.45;;;21.30;;
59492;SDS011;45497;43.996;22.876;2023-03-23T08:20:19;27.67;;;21.27;;
59492;SDS011;45497;43.996;22.876;2023-03-23T08:22:50;27.42;;;21.17;;
59492;SDS011;45497;43.996;22.876;2023-03-23T08:25:20;26.80;;;21.33;;
59492;SDS011;45497;43.996;22.876;2023-03-23T08:27:46;30.77;;;21.92;;
59492;SDS011;45497;43.996;22.876;2023-03-23T08:30:13;27.58;;;20.90;;
59492;SDS011;45497;43.996;22.876;2023-03-23T08:32:40;26.42;;;20.27;;
59492;SDS011;45497;43.996;22.876;2023-03-23T08:35:07;27.75;;;18.73;;
59492;SDS011;45497;43.996;22.876;2023-03-23T08:37:34;20.63;;;14.57;;
59492;SDS011;45497;43.996;22.876;2023-03-23T08:40:00;22.13;;;15.18;;
59492;SDS011;45497;43.996;22.876;2023-03-23T08:42:32;26.23;;;19.40;;
59492;SDS011;45497;43.996;22.876;2023-03-23T08:44:58;23.85;;;18.92;;
59492;SDS011;45497;43.996;22.876;2023-03-23T08:47:24;25.02;;;19.05;;
59492;SDS011;45497;43.996;22.876;2023-03-23T08:49:50;25.60;;;20.25;;
59492;SDS011;45497;43.996;22.876;2023-03-23T08:52:19;29.60;;;21.25;;
59492;SDS011;45497;43.996;22.876;2023-03-23T08:54:45;24.45;;;19.42;;
59492;SDS011;45497;43.996;22.876;2023-03-23T08:57:13;29.15;;;22.45;;
59492;SDS011;45497;43.996;22.876;2023-03-23T08:59:39;29.77;;;19.33;;
59492;SDS011;45497;43.996;22.876;2023-03-23T09:02:08;23.27;;;18.98;;
59492;SDS011;45497;43.996;22.876;2023-03-23T09:04:35;24.00;;;19.00;;
59492;SDS011;45497;43.996;22.876;2023-03-23T09:07:01;23.80;;;18.98;;
59492;SDS011;45497;43.996;22.876;2023-03-23T09:09:27;22.83;;;18.98;;
59492;SDS011;45497;43.996;22.876;2023-03-23T09:11:53;26.37;;;20.20;;
59492;SDS011;45497;43.996;22.876;2023-03-23T09:14:19;23.13;;;19.50;;
59492;SDS011;45497;43.996;22.876;2023-03-23T09:16:44;24.63;;;19.35;;
59492;SDS011;45497;43.996;22.876;2023-03-23T09:19:10;25.47;;;18.63;;
59492;SDS011;45497;43.996;22.876;2023-03-23T09:21:37;26.23;;;19.80;;
59492;SDS011;45497;43.996;22.876;2023-03-23T09:24:03;25.10;;;19.37;;
59492;SDS011;45497;43.996;22.876;2023-03-23T09:26:29;24.20;;;18.92;;
59492;SDS011;45497;43.996;22.876;2023-03-23T09:28:56;25.20;;;19.27;;
59492;SDS011;45497;43.996;22.876;2023-03-23T09:31:23;25.63;;;20.38;;
59492;SDS011;45497;43.996;22.876;2023-03-23T09:33:51;23.53;;;18.90;;
59492;SDS011;45497;43.996;22.876;2023-03-23T09:36:17;25.07;;;19.80;;
59492;SDS011;45497;43.996;22.876;2023-03-23T09:38:46;25.95;;;19.63;;
59492;SDS011;45497;43.996;22.876;2023-03-23T09:48:57;21.85;;;18.23;;
59492;SDS011;45497;43.996;22.876;2023-03-23T09:54:03;24.90;;;18.85;;
59492;SDS011;45497;43.996;22.876;2023-03-23T09:56:35;21.13;;;18.17;;
59492;SDS011;45497;43.996;22.876;2023-03-23T10:01:49;24.08;;;18.40;;
59492;SDS011;45497;43.996;22.876;2023-03-23T10:04:32;22.17;;;17.65;;
59492;SDS011;45497;43.996;22.876;2023-03-23T10:07:14;21.67;;;18.40;;
59492;SDS011;45497;43.996;22.876;2023-03-23T10:09:55;22.90;;;18.45;;
59492;SDS011;45497;43.996;22.876;2023-03-23T10:12:42;20.83;;;17.90;;
59492;SDS011;45497;43.996;22.876;2023-03-23T10:15:29;23.55;;;18.75;;
59492;SDS011;45497;43.996;22.876;2023-03-23T10:28:35;21.98;;;17.17;;
59492;SDS011;45497;43.996;22.876;2023-03-23T10:31:19;21.67;;;17.52;;
59492;SDS011;45497;43.996;22.876;2023-03-23T10:33:48;21.10;;;16.88;;
59492;SDS011;45497;43.996;22.876;2023-03-23T10:36:33;22.13;;;17.13;;
59492;SDS011;45497;43.996;22.876;2023-03-23T10:39:05;21.53;;;16.37;;
59492;SDS011;45497;43.996;22.876;2023-03-23T10:41:34;19.83;;;16.35;;
59492;SDS011;45497;43.996;22.876;2023-03-23T10:44:00;20.20;;;16.60;;
59492;SDS011;45497;43.996;22.876;2023-03-23T10:46:41;20.30;;;16.08;;
59492;SDS011;45497;43.996;22.876;2023-03-23T10:54:37;19.77;;;14.95;;
59492;SDS011;45497;43.996;22.876;2023-03-23T10:57:12;17.73;;;14.63;;
59492;SDS011;45497;43.996;22.876;2023-03-23T10:59:45;18.50;;;14.68;;
59492;SDS011;45497;43.996;22.876;2023-03-23T11:02:15;17.93;;;15.03;;
59492;SDS011;45497;43.996;22.876;2023-03-23T11:04:53;19.03;;;14.73;;
59492;SDS011;45497;43.996;22.876;2023-03-23T11:07:25;17.60;;;14.97;;
59492;SDS011;45497;43.996;22.876;2023-03-23T11:09:54;16.77;;;14.98;;
59492;SDS011;45497;43.996;22.876;2023-03-23T11:12:23;19.93;;;15.43;;
59492;SDS011;45497;43.996;22.876;2023-03-23T11:14:49;17.70;;;15.30;;
59492;SDS011;45497;43.996;22.876;2023-03-23T11:17:25;17.00;;;14.93;;
59492;SDS011;45497;43.996;22.876;2023-03-23T11:19:52;15.88;;;13.43;;
59492;SDS011;45497;43.996;22.876;2023-03-23T11:22:24;14.27;;;12.77;;
59492;SDS011;45497;43.996;22.876;2023-03-23T11:24:53;15.27;;;13.68;;
59492;SDS011;45497;43.996;22.876;2023-03-23T11:27:22;15.95;;;13.80;;
59492;SDS011;45497;43.996;22.876;2023-03-23T11:29:49;15.95;;;13.68;;
59492;SDS011;45497;43.996;22.876;2023-03-23T11:32:17;17.38;;;13.95;;
59492;SDS011;45497;43.996;22.876;2023-03-23T11:34:43;15.38;;;12.98;;
59492;SDS011;45497;43.996;22.876;2023-03-23T11:37:21;13.27;;;11.70;;
59492;SDS011;45497;43.996;22.876;2023-03-23T11:39:55;14.52;;;12.45;;
59492;SDS011;45497;43.996;22.876;2023-03-23T11:42:45;14.55;;;12.52;;
59492;SDS011;45497;43.996;22.876;2023-03-23T11:56:11;12.52;;;10.65;;
59492;SDS011;45497;43.996;22.876;2023-03-23T11:58:37;12.23;;;10.25;;
59492;SDS011;45497;43.996;22.876;2023-03-23T12:01:05;11.70;;;10.50;;
59492;SDS011;45497;43.996;22.876;2023-03-23T12:09:02;12.02;;;10.15;;
59492;SDS011;45497;43.996;22.876;2023-03-23T12:23:33;9.73;;;8.70;;
59492;SDS011;45497;43.996;22.876;2023-03-23T12:34:22;9.68;;;8.25;;
59492;SDS011;45497;43.996;22.876;2023-03-23T12:39:50;9.02;;;7.72;;
59492;SDS011;45497;43.996;22.876;2023-03-23T12:47:49;10.10;;;7.97;;
59492;SDS011;45497;43.996;22.876;2023-03-23T12:53:06;9.05;;;7.90;;
59492;SDS011;45497;43.996;22.876;2023-03-23T12:58:50;8.00;;;6.82;;
59492;SDS011;45497;43.996;22.876;2023-03-23T13:01:27;7.70;;;6.80;;
59492;SDS011;45497;43.996;22.876;2023-03-23T13:04:11;8.60;;;7.22;;
59492;SDS011;45497;43.996;22.876;2023-03-23T13:06:42;8.00;;;6.95;;
59492;SDS011;45497;43.996;22.876;2023-03-23T13:09:11;8.53;;;7.17;;
59492;SDS011;45497;43.996;22.876;2023-03-23T13:11:42;7.53;;;6.82;;
59492;SDS011;45497;43.996;22.876;2023-03-23T13:22:54;10.75;;;6.30;;
59492;SDS011;45497;43.996;22.876;2023-03-23T13:25:37;8.32;;;6.60;;
59492;SDS011;45497;43.996;22.876;2023-03-23T13:28:23;9.10;;;6.82;;
59492;SDS011;45497;43.996;22.876;2023-03-23T13:30:54;7.47;;;6.47;;
59492;SDS011;45497;43.996;22.876;2023-03-23T13:33:25;7.50;;;6.70;;
59492;SDS011;45497;43.996;22.876;2023-03-23T13:35:51;7.78;;;6.93;;
59492;SDS011;45497;43.996;22.876;2023-03-23T13:38:21;7.90;;;6.90;;
59492;SDS011;45497;43.996;22.876;2023-03-23T13:40:50;7.63;;;6.50;;
59492;SDS011;45497;43.996;22.876;2023-03-23T13:43:28;8.32;;;6.28;;
59492;SDS011;45497;43.996;22.876;2023-03-23T13:46:06;7.72;;;6.43;;
59492;SDS011;45497;43.996;22.876;2023-03-23T13:48:39;8.20;;;6.60;;
59492;SDS011;45497;43.996;22.876;2023-03-23T13:51:23;8.68;;;6.32;;
59492;SDS011;45497;43.996;22.876;2023-03-23T13:54:03;6.80;;;6.10;;
59492;SDS011;45497;43.996;22.876;2023-03-23T13:59:28;6.80;;;6.10;;
59492;SDS011;45497;43.996;22.876;2023-03-23T14:04:56;7.35;;;6.32;;
59492;SDS011;45497;43.996;22.876;2023-03-23T14:07:49;7.25;;;6.53;;
59492;SDS011;45497;43.996;22.876;2023-03-23T14:13:29;7.55;;;6.25;;
59492;SDS011;45497;43.996;22.876;2023-03-23T14:18:31;7.70;;;6.00;;
59492;SDS011;45497;43.996;22.876;2023-03-23T14:21:01;8.45;;;5.78;;
59492;SDS011;45497;43.996;22.876;2023-03-23T14:23:30;7.00;;;6.30;;
59492;SDS011;45497;43.996;22.876;2023-03-23T14:26:02;6.82;;;6.13;;
59492;SDS011;45497;43.996;22.876;2023-03-23T14:28:39;8.82;;;6.57;;
59492;SDS011;45497;43.996;22.876;2023-03-23T14:31:15;7.57;;;6.60;;
59492;SDS011;45497;43.996;22.876;2023-03-23T14:33:44;7.07;;;6.32;;
59492;SDS011;45497;43.996;22.876;2023-03-23T14:36:10;10.80;;;6.90;;
59492;SDS011;45497;43.996;22.876;2023-03-23T14:38:36;7.68;;;6.70;;
59492;SDS011;45497;43.996;22.876;2023-03-23T14:41:04;8.73;;;7.00;;
59492;SDS011;45497;43.996;22.876;2023-03-23T14:43:30;24.55;;;15.50;;
59492;SDS011;45497;43.996;22.876;2023-03-23T14:46:00;7.57;;;6.53;;
59492;SDS011;45497;43.996;22.876;2023-03-23T14:48:29;8.50;;;6.43;;
59492;SDS011;45497;43.996;22.876;2023-03-23T14:50:59;8.17;;;6.50;;
59492;SDS011;45497;43.996;22.876;2023-03-23T14:53:35;8.70;;;6.47;;
59492;SDS011;45497;43.996;22.876;2023-03-23T14:56:15;7.68;;;6.55;;
59492;SDS011;45497;43.996;22.876;2023-03-23T14:58:45;9.07;;;6.60;;
59492;SDS011;45497;43.996;22.876;2023-03-23T15:04:14;8.98;;;7.85;;
59492;SDS011;45497;43.996;22.876;2023-03-23T15:06:58;9.10;;;7.95;;
59492;SDS011;45497;43.996;22.876;2023-03-23T15:09:28;10.07;;;7.90;;
59492;SDS011;45497;43.996;22.876;2023-03-23T15:12:02;9.00;;;8.07;;
59492;SDS011;45497;43.996;22.876;2023-03-23T15:14:36;10.90;;;8.15;;
59492;SDS011;45497;43.996;22.876;2023-03-23T15:17:09;9.52;;;8.50;;
59492;SDS011;45497;43.996;22.876;2023-03-23T15:19:43;11.48;;;8.73;;
59492;SDS011;45497;43.996;22.876;2023-03-23T15:24:51;9.63;;;8.07;;
59492;SDS011;45497;43.996;22.876;2023-03-23T15:27:28;8.60;;;7.68;;
59492;SDS011;45497;43.996;22.876;2023-03-23T15:29:56;9.38;;;7.82;;
59492;SDS011;45497;43.996;22.876;2023-03-23T15:32:29;8.85;;;7.95;;
59492;SDS011;45497;43.996;22.876;2023-03-23T15:35:03;9.85;;;8.10;;
59492;SDS011;45497;43.996;22.876;2023-03-23T15:37:37;9.40;;;7.53;;
59492;SDS011;45497;43.996;22.876;2023-03-23T15:40:17;10.77;;;8.27;;
59492;SDS011;45497;43.996;22.876;2023-03-23T15:42:45;12.30;;;9.18;;
59492;SDS011;45497;43.996;22.876;2023-03-23T15:50:15;10.60;;;8.47;;
59492;SDS011;45497;43.996;22.876;2023-03-23T15:52:50;10.50;;;8.23;;
59492;SDS011;45497;43.996;22.876;2023-03-23T15:55:37;14.37;;;8.77;;
59492;SDS011;45497;43.996;22.876;2023-03-23T15:58:08;13.30;;;8.50;;
59492;SDS011;45497;43.996;22.876;2023-03-23T16:00:35;9.38;;;8.27;;
59492;SDS011;45497;43.996;22.876;2023-03-23T16:03:03;11.18;;;8.75;;
59492;SDS011;45497;43.996;22.876;2023-03-23T16:05:30;10.97;;;8.37;;
59492;SDS011;45497;43.996;22.876;2023-03-23T16:07:57;10.25;;;8.98;;
59492;SDS011;45497;43.996;22.876;2023-03-23T16:10:23;10.90;;;9.23;;
59492;SDS011;45497;43.996;22.876;2023-03-23T16:12:50;12.95;;;9.48;;
59492;SDS011;45497;43.996;22.876;2023-03-23T16:15:16;11.98;;;9.70;;
59492;SDS011;45497;43.996;22.876;2023-03-23T16:17:42;13.23;;;9.77;;
59492;SDS011;45497;43.996;22.876;2023-03-23T16:20:15;11.63;;;9.48;;
59492;SDS011;45497;43.996;22.876;2023-03-23T16:22:43;10.70;;;9.02;;
59492;SDS011;45497;43.996;22.876;2023-03-23T16:25:09;12.00;;;9.63;;
59492;SDS011;45497;43.996;22.876;2023-03-23T16:27:35;10.77;;;9.68;;
59492;SDS011;45497;43.996;22.876;2023-03-23T16:30:08;10.88;;;9.52;;
59492;SDS011;45497;43.996;22.876;2023-03-23T16:32:40;14.87;;;10.13;;
59492;SDS011;45497;43.996;22.876;2023-03-23T16:35:06;12.77;;;11.02;;
59492;SDS011;45497;43.996;22.876;2023-03-23T16:37:32;16.33;;;11.40;;
59492;SDS011;45497;43.996;22.876;2023-03-23T16:39:58;15.98;;;11.90;;
59492;SDS011;45497;43.996;22.876;2023-03-23T16:42:25;25.73;;;17.90;;
59492;SDS011;45497;43.996;22.876;2023-03-23T16:44:50;15.07;;;12.60;;
59492;SDS011;45497;43.996;22.876;2023-03-23T16:47:16;15.27;;;11.55;;
59492;SDS011;45497;43.996;22.876;2023-03-23T16:49:43;14.50;;;11.63;;